sensor_id;sensor_type;location;lat;lon;timestamp;P1;durP1;ratioP1;P2;durP2;ratioP2
44026;SDS011;29696;55.698;37.460;2022-07-09T00:02:22;12.05;;;6.97;;
44026;SDS011;29696;55.698;37.460;2022-07-09T00:04:49;13.07;;;7.13;;
44026;SDS011;29696;55.698;37.460;2022-07-09T00:07:15;15.43;;;7.45;;
44026;SDS011;29696;55.698;37.460;2022-07-09T00:09:42;19.15;;;8.02;;
44026;SDS011;29696;55.698;37.460;2022-07-09T00:12:08;15.63;;;7.25;;
44026;SDS011;29696;55.698;37.460;2022-07-09T00:14:35;17.10;;;7.22;;
44026;SDS011;29696;55.698;37.460;2022-07-09T00:17:01;17.85;;;7.22;;
44026;SDS011;29696;55.698;37.460;2022-07-09T00:19:27;16.42;;;7.85;;
44026;SDS011;29696;55.698;37.460;2022-07-09T00:21:54;13.23;;;7.55;;
44026;SDS011;29696;55.698;37.460;2022-07-09T00:24:20;15.25;;;8.57;;
44026;SDS011;29696;55.698;37.460;2022-07-09T00:26:46;17.58;;;9.27;;
44026;SDS011;29696;55.698;37.460;2022-07-09T00:29:13;9.50;;;6.82;;
44026;SDS011;29696;55.698;37.460;2022-07-09T00:31:39;15.65;;;7.30;;
44026;SDS011;29696;55.698;37.460;2022-07-09T00:34:06;17.20;;;10.15;;
44026;SDS011;29696;55.698;37.460;2022-07-09T00:36:32;18.20;;;9.07;;
44026;SDS011;29696;55.698;37.460;2022-07-09T00:38:58;15.07;;;8.30;;
44026;SDS011;29696;55.698;37.460;2022-07-09T00:41:24;25.40;;;8.88;;
44026;SDS011;29696;55.698;37.460;2022-07-09T00:43:51;25.40;;;9.77;;
44026;SDS011;29696;55.698;37.460;2022-07-09T00:46:17;22.52;;;8.85;;
44026;SDS011;29696;55.698;37.460;2022-07-09T00:48:44;17.38;;;8.88;;
44026;SDS011;29696;55.698;37.460;2022-07-09T00:51:11;20.10;;;8.43;;
44026;SDS011;29696;55.698;37.460;2022-07-09T00:53:40;18.13;;;8.85;;
44026;SDS011;29696;55.698;37.460;2022-07-09T00:56:06;17.60;;;8.23;;
44026;SDS011;29696;55.698;37.460;2022-07-09T00:58:33;12.73;;;9.05;;
44026;SDS011;29696;55.698;37.460;2022-07-09T01:01:01;20.65;;;8.27;;
44026;SDS011;29696;55.698;37.460;2022-07-09T01:03:28;15.23;;;7.47;;
44026;SDS011;29696;55.698;37.460;2022-07-09T01:05:54;16.83;;;11.18;;
44026;SDS011;29696;55.698;37.460;2022-07-09T01:08:22;21.67;;;9.02;;
44026;SDS011;29696;55.698;37.460;2022-07-09T01:10:48;17.48;;;7.75;;
44026;SDS011;29696;55.698;37.460;2022-07-09T01:13:17;20.58;;;10.23;;
44026;SDS011;29696;55.698;37.460;2022-07-09T01:15:43;27.02;;;9.13;;
44026;SDS011;29696;55.698;37.460;2022-07-09T01:18:13;19.40;;;10.40;;
44026;SDS011;29696;55.698;37.460;2022-07-09T01:20:39;27.73;;;10.93;;
44026;SDS011;29696;55.698;37.460;2022-07-09T01:23:05;13.57;;;9.30;;
44026;SDS011;29696;55.698;37.460;2022-07-09T01:28:24;26.02;;;9.75;;
44026;SDS011;29696;55.698;37.460;2022-07-09T01:30:50;39.97;;;11.00;;
44026;SDS011;29696;55.698;37.460;2022-07-09T01:33:17;33.92;;;10.45;;
44026;SDS011;29696;55.698;37.460;2022-07-09T01:35:43;31.80;;;11.15;;
44026;SDS011;29696;55.698;37.460;2022-07-09T01:38:09;24.38;;;9.82;;
44026;SDS011;29696;55.698;37.460;2022-07-09T01:40:36;25.48;;;10.13;;
44026;SDS011;29696;55.698;37.460;2022-07-09T01:43:02;29.67;;;10.57;;
44026;SDS011;29696;55.698;37.460;2022-07-09T01:45:29;27.45;;;10.00;;
44026;SDS011;29696;55.698;37.460;2022-07-09T01:47:55;25.52;;;10.02;;
44026;SDS011;29696;55.698;37.460;2022-07-09T01:50:21;29.20;;;11.05;;
44026;SDS011;29696;55.698;37.460;2022-07-09T01:52:48;21.10;;;10.07;;
44026;SDS011;29696;55.698;37.460;2022-07-09T01:55:14;31.45;;;12.85;;
44026;SDS011;29696;55.698;37.460;2022-07-09T01:57:40;33.33;;;11.55;;
44026;SDS011;29696;55.698;37.460;2022-07-09T02:00:07;28.42;;;10.10;;
44026;SDS011;29696;55.698;37.460;2022-07-09T02:02:39;25.65;;;9.70;;
44026;SDS011;29696;55.698;37.460;2022-07-09T02:05:06;31.02;;;10.23;;
44026;SDS011;29696;55.698;37.460;2022-07-09T02:07:32;42.63;;;11.68;;
44026;SDS011;29696;55.698;37.460;2022-07-09T02:09:59;38.33;;;11.00;;
44026;SDS011;29696;55.698;37.460;2022-07-09T02:12:25;25.45;;;9.18;;
44026;SDS011;29696;55.698;37.460;2022-07-09T02:14:52;21.10;;;8.52;;
44026;SDS011;29696;55.698;37.460;2022-07-09T02:17:18;20.60;;;10.65;;
44026;SDS011;29696;55.698;37.460;2022-07-09T02:19:44;34.22;;;9.43;;
44026;SDS011;29696;55.698;37.460;2022-07-09T02:22:11;29.63;;;9.85;;
44026;SDS011;29696;55.698;37.460;2022-07-09T02:24:37;24.88;;;9.80;;
44026;SDS011;29696;55.698;37.460;2022-07-09T02:27:03;28.63;;;10.27;;
44026;SDS011;29696;55.698;37.460;2022-07-09T02:29:31;25.33;;;9.13;;
44026;SDS011;29696;55.698;37.460;2022-07-09T02:31:57;16.05;;;10.13;;
44026;SDS011;29696;55.698;37.460;2022-07-09T02:34:24;32.60;;;10.70;;
44026;SDS011;29696;55.698;37.460;2022-07-09T02:36:51;20.70;;;9.90;;
44026;SDS011;29696;55.698;37.460;2022-07-09T02:39:17;28.92;;;11.00;;
44026;SDS011;29696;55.698;37.460;2022-07-09T02:41:44;19.80;;;10.65;;
44026;SDS011;29696;55.698;37.460;2022-07-09T02:44:10;25.48;;;9.88;;
44026;SDS011;29696;55.698;37.460;2022-07-09T02:46:36;25.73;;;11.50;;
44026;SDS011;29696;55.698;37.460;2022-07-09T02:49:02;23.63;;;11.13;;
44026;SDS011;29696;55.698;37.460;2022-07-09T02:51:29;22.58;;;11.38;;
44026;SDS011;29696;55.698;37.460;2022-07-09T02:53:56;23.75;;;12.40;;
44026;SDS011;29696;55.698;37.460;2022-07-09T02:56:22;23.85;;;10.30;;
44026;SDS011;29696;55.698;37.460;2022-07-09T02:58:48;21.65;;;9.48;;
44026;SDS011;29696;55.698;37.460;2022-07-09T03:01:15;30.08;;;12.65;;
44026;SDS011;29696;55.698;37.460;2022-07-09T03:03:41;20.85;;;9.68;;
44026;SDS011;29696;55.698;37.460;2022-07-09T03:06:07;21.23;;;10.35;;
44026;SDS011;29696;55.698;37.460;2022-07-09T03:08:34;24.75;;;9.13;;
44026;SDS011;29696;55.698;37.460;2022-07-09T03:11:00;17.30;;;9.90;;
44026;SDS011;29696;55.698;37.460;2022-07-09T03:13:26;18.73;;;8.88;;
44026;SDS011;29696;55.698;37.460;2022-07-09T03:15:53;29.30;;;11.18;;
44026;SDS011;29696;55.698;37.460;2022-07-09T03:18:19;23.42;;;10.20;;
44026;SDS011;29696;55.698;37.460;2022-07-09T03:20:47;26.63;;;10.63;;
44026;SDS011;29696;55.698;37.460;2022-07-09T03:23:13;24.30;;;9.40;;
44026;SDS011;29696;55.698;37.460;2022-07-09T03:25:39;27.83;;;9.40;;
44026;SDS011;29696;55.698;37.460;2022-07-09T03:28:07;28.15;;;10.85;;
44026;SDS011;29696;55.698;37.460;2022-07-09T03:30:33;30.85;;;10.25;;
44026;SDS011;29696;55.698;37.460;2022-07-09T03:32:59;30.02;;;11.13;;
44026;SDS011;29696;55.698;37.460;2022-07-09T03:35:25;22.65;;;11.88;;
44026;SDS011;29696;55.698;37.460;2022-07-09T03:37:52;20.85;;;12.43;;
44026;SDS011;29696;55.698;37.460;2022-07-09T03:40:18;23.88;;;11.82;;
44026;SDS011;29696;55.698;37.460;2022-07-09T03:42:44;32.35;;;14.65;;
44026;SDS011;29696;55.698;37.460;2022-07-09T03:45:10;23.20;;;11.18;;
44026;SDS011;29696;55.698;37.460;2022-07-09T03:47:37;19.73;;;9.73;;
44026;SDS011;29696;55.698;37.460;2022-07-09T03:50:03;19.75;;;11.57;;
44026;SDS011;29696;55.698;37.460;2022-07-09T03:52:30;17.77;;;11.00;;
44026;SDS011;29696;55.698;37.460;2022-07-09T03:54:56;22.00;;;9.73;;
44026;SDS011;29696;55.698;37.460;2022-07-09T03:57:23;15.65;;;9.75;;
44026;SDS011;29696;55.698;37.460;2022-07-09T03:59:49;12.32;;;7.70;;
44026;SDS011;29696;55.698;37.460;2022-07-09T04:02:15;19.60;;;9.30;;
44026;SDS011;29696;55.698;37.460;2022-07-09T04:04:42;21.17;;;8.45;;
44026;SDS011;29696;55.698;37.460;2022-07-09T04:07:09;16.85;;;9.93;;
44026;SDS011;29696;55.698;37.460;2022-07-09T04:09:36;16.83;;;9.80;;
44026;SDS011;29696;55.698;37.460;2022-07-09T04:12:03;14.57;;;9.38;;
44026;SDS011;29696;55.698;37.460;2022-07-09T04:14:29;9.73;;;8.20;;
44026;SDS011;29696;55.698;37.460;2022-07-09T04:16:55;12.20;;;10.02;;
44026;SDS011;29696;55.698;37.460;2022-07-09T04:19:22;14.50;;;9.93;;
44026;SDS011;29696;55.698;37.460;2022-07-09T04:21:48;14.15;;;10.07;;
44026;SDS011;29696;55.698;37.460;2022-07-09T04:24:14;13.90;;;8.20;;
44026;SDS011;29696;55.698;37.460;2022-07-09T04:26:43;10.82;;;8.60;;
44026;SDS011;29696;55.698;37.460;2022-07-09T04:29:09;19.00;;;9.35;;
44026;SDS011;29696;55.698;37.460;2022-07-09T04:31:36;20.20;;;9.32;;
44026;SDS011;29696;55.698;37.460;2022-07-09T04:34:02;11.95;;;9.23;;
44026;SDS011;29696;55.698;37.460;2022-07-09T04:36:29;10.18;;;8.13;;
44026;SDS011;29696;55.698;37.460;2022-07-09T04:38:55;17.63;;;8.70;;
44026;SDS011;29696;55.698;37.460;2022-07-09T04:41:22;11.15;;;7.50;;
44026;SDS011;29696;55.698;37.460;2022-07-09T04:43:48;10.00;;;7.32;;
44026;SDS011;29696;55.698;37.460;2022-07-09T04:46:15;10.85;;;7.25;;
44026;SDS011;29696;55.698;37.460;2022-07-09T04:48:42;9.23;;;6.72;;
44026;SDS011;29696;55.698;37.460;2022-07-09T04:51:08;10.82;;;6.97;;
44026;SDS011;29696;55.698;37.460;2022-07-09T04:53:35;9.23;;;7.00;;
44026;SDS011;29696;55.698;37.460;2022-07-09T04:56:01;6.60;;;5.45;;
44026;SDS011;29696;55.698;37.460;2022-07-09T04:58:28;12.10;;;6.72;;
44026;SDS011;29696;55.698;37.460;2022-07-09T05:00:54;6.82;;;5.43;;
44026;SDS011;29696;55.698;37.460;2022-07-09T05:03:21;11.30;;;5.38;;
44026;SDS011;29696;55.698;37.460;2022-07-09T05:05:47;8.85;;;5.13;;
44026;SDS011;29696;55.698;37.460;2022-07-09T05:08:13;13.60;;;6.07;;
44026;SDS011;29696;55.698;37.460;2022-07-09T05:10:40;6.32;;;4.88;;
44026;SDS011;29696;55.698;37.460;2022-07-09T05:13:06;10.98;;;4.75;;
44026;SDS011;29696;55.698;37.460;2022-07-09T05:15:32;8.93;;;3.72;;
44026;SDS011;29696;55.698;37.460;2022-07-09T05:17:59;8.45;;;4.75;;
44026;SDS011;29696;55.698;37.460;2022-07-09T05:20:26;8.32;;;4.18;;
44026;SDS011;29696;55.698;37.460;2022-07-09T05:22:52;9.43;;;5.15;;
44026;SDS011;29696;55.698;37.460;2022-07-09T05:25:19;6.30;;;4.03;;
44026;SDS011;29696;55.698;37.460;2022-07-09T05:27:45;7.40;;;4.20;;
44026;SDS011;29696;55.698;37.460;2022-07-09T05:30:14;6.75;;;4.05;;
44026;SDS011;29696;55.698;37.460;2022-07-09T05:32:41;2.00;;;1.80;;
44026;SDS011;29696;55.698;37.460;2022-07-09T05:35:08;2.72;;;2.30;;
44026;SDS011;29696;55.698;37.460;2022-07-09T05:37:40;6.53;;;2.97;;
44026;SDS011;29696;55.698;37.460;2022-07-09T05:40:08;5.63;;;3.25;;
44026;SDS011;29696;55.698;37.460;2022-07-09T05:42:36;5.05;;;2.50;;
44026;SDS011;29696;55.698;37.460;2022-07-09T05:45:03;7.57;;;2.55;;
44026;SDS011;29696;55.698;37.460;2022-07-09T05:47:31;3.60;;;2.03;;
44026;SDS011;29696;55.698;37.460;2022-07-09T05:49:57;3.22;;;2.92;;
44026;SDS011;29696;55.698;37.460;2022-07-09T05:52:24;6.05;;;3.33;;
44026;SDS011;29696;55.698;37.460;2022-07-09T05:54:50;5.72;;;4.65;;
44026;SDS011;29696;55.698;37.460;2022-07-09T05:57:17;6.25;;;3.38;;
44026;SDS011;29696;55.698;37.460;2022-07-09T05:59:43;7.40;;;2.97;;
44026;SDS011;29696;55.698;37.460;2022-07-09T06:02:10;7.68;;;3.28;;
44026;SDS011;29696;55.698;37.460;2022-07-09T06:04:36;9.18;;;5.22;;
44026;SDS011;29696;55.698;37.460;2022-07-09T06:07:02;8.75;;;3.97;;
44026;SDS011;29696;55.698;37.460;2022-07-09T06:09:29;6.80;;;3.90;;
44026;SDS011;29696;55.698;37.460;2022-07-09T06:11:55;4.97;;;2.30;;
44026;SDS011;29696;55.698;37.460;2022-07-09T06:14:22;5.22;;;3.03;;
44026;SDS011;29696;55.698;37.460;2022-07-09T06:16:48;5.55;;;2.90;;
44026;SDS011;29696;55.698;37.460;2022-07-09T06:19:14;7.75;;;2.90;;
44026;SDS011;29696;55.698;37.460;2022-07-09T06:21:41;2.42;;;2.08;;
44026;SDS011;29696;55.698;37.460;2022-07-09T06:24:07;3.15;;;2.17;;
44026;SDS011;29696;55.698;37.460;2022-07-09T06:26:33;8.10;;;3.65;;
44026;SDS011;29696;55.698;37.460;2022-07-09T06:29:00;5.28;;;2.15;;
44026;SDS011;29696;55.698;37.460;2022-07-09T06:31:26;2.15;;;1.95;;
44026;SDS011;29696;55.698;37.460;2022-07-09T06:33:53;2.33;;;2.08;;
44026;SDS011;29696;55.698;37.460;2022-07-09T06:36:19;4.97;;;2.55;;
44026;SDS011;29696;55.698;37.460;2022-07-09T06:38:45;2.63;;;1.92;;
44026;SDS011;29696;55.698;37.460;2022-07-09T06:41:31;6.45;;;1.90;;
44026;SDS011;29696;55.698;37.460;2022-07-09T06:43:58;3.80;;;2.05;;
44026;SDS011;29696;55.698;37.460;2022-07-09T06:46:24;2.92;;;2.00;;
44026;SDS011;29696;55.698;37.460;2022-07-09T06:48:52;3.42;;;1.98;;
44026;SDS011;29696;55.698;37.460;2022-07-09T06:51:18;3.38;;;2.08;;
44026;SDS011;29696;55.698;37.460;2022-07-09T06:53:44;4.78;;;2.05;;
44026;SDS011;29696;55.698;37.460;2022-07-09T06:56:11;14.70;;;3.00;;
44026;SDS011;29696;55.698;37.460;2022-07-09T06:58:37;3.42;;;2.05;;
44026;SDS011;29696;55.698;37.460;2022-07-09T07:01:03;3.63;;;2.25;;
44026;SDS011;29696;55.698;37.460;2022-07-09T07:03:30;7.28;;;3.03;;
44026;SDS011;29696;55.698;37.460;2022-07-09T07:05:56;3.78;;;2.10;;
44026;SDS011;29696;55.698;37.460;2022-07-09T07:08:22;7.20;;;2.50;;
44026;SDS011;29696;55.698;37.460;2022-07-09T07:10:49;4.38;;;2.55;;
44026;SDS011;29696;55.698;37.460;2022-07-09T07:13:15;2.42;;;1.83;;
44026;SDS011;29696;55.698;37.460;2022-07-09T07:15:41;5.50;;;3.13;;
44026;SDS011;29696;55.698;37.460;2022-07-09T07:18:08;14.52;;;3.60;;
44026;SDS011;29696;55.698;37.460;2022-07-09T07:20:34;13.50;;;3.58;;
44026;SDS011;29696;55.698;37.460;2022-07-09T07:23:00;3.40;;;3.00;;
44026;SDS011;29696;55.698;37.460;2022-07-09T07:25:26;3.72;;;2.60;;
44026;SDS011;29696;55.698;37.460;2022-07-09T07:27:52;2.85;;;2.05;;
44026;SDS011;29696;55.698;37.460;2022-07-09T07:30:19;3.28;;;2.58;;
44026;SDS011;29696;55.698;37.460;2022-07-09T07:32:45;2.33;;;2.13;;
44026;SDS011;29696;55.698;37.460;2022-07-09T07:35:11;6.07;;;2.20;;
44026;SDS011;29696;55.698;37.460;2022-07-09T07:37:38;5.00;;;3.17;;
44026;SDS011;29696;55.698;37.460;2022-07-09T07:40:04;5.32;;;2.33;;
44026;SDS011;29696;55.698;37.460;2022-07-09T07:42:31;5.25;;;2.85;;
44026;SDS011;29696;55.698;37.460;2022-07-09T07:44:57;5.15;;;2.30;;
44026;SDS011;29696;55.698;37.460;2022-07-09T07:47:24;6.38;;;2.72;;
44026;SDS011;29696;55.698;37.460;2022-07-09T07:49:50;7.10;;;3.53;;
44026;SDS011;29696;55.698;37.460;2022-07-09T07:52:17;11.75;;;3.03;;
44026;SDS011;29696;55.698;37.460;2022-07-09T07:54:44;5.00;;;3.33;;
44026;SDS011;29696;55.698;37.460;2022-07-09T07:57:10;7.25;;;3.20;;
44026;SDS011;29696;55.698;37.460;2022-07-09T07:59:37;5.82;;;3.08;;
44026;SDS011;29696;55.698;37.460;2022-07-09T08:02:03;21.10;;;3.20;;
44026;SDS011;29696;55.698;37.460;2022-07-09T08:04:29;6.50;;;3.17;;
44026;SDS011;29696;55.698;37.460;2022-07-09T08:06:57;4.65;;;4.15;;
44026;SDS011;29696;55.698;37.460;2022-07-09T08:09:23;8.68;;;3.78;;
44026;SDS011;29696;55.698;37.460;2022-07-09T08:11:50;5.45;;;3.63;;
44026;SDS011;29696;55.698;37.460;2022-07-09T08:17:01;8.93;;;3.53;;
44026;SDS011;29696;55.698;37.460;2022-07-09T08:19:27;6.03;;;3.83;;
44026;SDS011;29696;55.698;37.460;2022-07-09T08:21:53;5.13;;;3.92;;
44026;SDS011;29696;55.698;37.460;2022-07-09T08:24:20;5.30;;;4.80;;
44026;SDS011;29696;55.698;37.460;2022-07-09T08:26:46;6.20;;;4.28;;
44026;SDS011;29696;55.698;37.460;2022-07-09T08:29:12;6.63;;;4.57;;
44026;SDS011;29696;55.698;37.460;2022-07-09T08:31:38;5.93;;;5.10;;
44026;SDS011;29696;55.698;37.460;2022-07-09T08:34:05;5.13;;;4.63;;
44026;SDS011;29696;55.698;37.460;2022-07-09T08:36:31;6.53;;;5.00;;
44026;SDS011;29696;55.698;37.460;2022-07-09T08:38:57;10.82;;;5.55;;
44026;SDS011;29696;55.698;37.460;2022-07-09T08:41:23;5.88;;;5.10;;
44026;SDS011;29696;55.698;37.460;2022-07-09T08:43:50;5.95;;;5.32;;
44026;SDS011;29696;55.698;37.460;2022-07-09T08:46:18;6.53;;;4.55;;
44026;SDS011;29696;55.698;37.460;2022-07-09T08:48:45;6.95;;;5.03;;
44026;SDS011;29696;55.698;37.460;2022-07-09T08:51:12;7.85;;;5.57;;
44026;SDS011;29696;55.698;37.460;2022-07-09T08:53:41;5.97;;;5.38;;
44026;SDS011;29696;55.698;37.460;2022-07-09T08:56:09;7.82;;;4.70;;
44026;SDS011;29696;55.698;37.460;2022-07-09T08:58:39;8.80;;;4.47;;
44026;SDS011;29696;55.698;37.460;2022-07-09T09:01:06;5.32;;;4.55;;
44026;SDS011;29696;55.698;37.460;2022-07-09T09:03:33;4.22;;;3.72;;
44026;SDS011;29696;55.698;37.460;2022-07-09T09:06:04;6.45;;;4.30;;
44026;SDS011;29696;55.698;37.460;2022-07-09T09:08:40;12.05;;;5.75;;
44026;SDS011;29696;55.698;37.460;2022-07-09T09:11:26;7.20;;;5.63;;
44026;SDS011;29696;55.698;37.460;2022-07-09T09:13:54;7.32;;;4.60;;
44026;SDS011;29696;55.698;37.460;2022-07-09T09:16:20;4.50;;;3.75;;
44026;SDS011;29696;55.698;37.460;2022-07-09T09:18:52;6.32;;;4.30;;
44026;SDS011;29696;55.698;37.460;2022-07-09T09:21:20;5.13;;;4.63;;
44026;SDS011;29696;55.698;37.460;2022-07-09T09:23:48;6.20;;;5.15;;
44026;SDS011;29696;55.698;37.460;2022-07-09T09:29:04;7.50;;;5.00;;
44026;SDS011;29696;55.698;37.460;2022-07-09T09:34:18;15.93;;;10.77;;
44026;SDS011;29696;55.698;37.460;2022-07-09T09:36:48;5.63;;;5.03;;
44026;SDS011;29696;55.698;37.460;2022-07-09T09:39:23;9.88;;;4.88;;
44026;SDS011;29696;55.698;37.460;2022-07-09T09:42:00;12.10;;;5.60;;
44026;SDS011;29696;55.698;37.460;2022-07-09T09:47:17;7.05;;;5.50;;
44026;SDS011;29696;55.698;37.460;2022-07-09T09:49:48;11.05;;;6.32;;
44026;SDS011;29696;55.698;37.460;2022-07-09T09:52:15;6.13;;;4.30;;
44026;SDS011;29696;55.698;37.460;2022-07-09T09:54:44;5.53;;;4.15;;
44026;SDS011;29696;55.698;37.460;2022-07-09T09:57:13;5.25;;;4.75;;
44026;SDS011;29696;55.698;37.460;2022-07-09T09:59:42;8.02;;;4.90;;
44026;SDS011;29696;55.698;37.460;2022-07-09T10:02:13;5.80;;;4.82;;
44026;SDS011;29696;55.698;37.460;2022-07-09T10:04:41;8.65;;;4.90;;
44026;SDS011;29696;55.698;37.460;2022-07-09T10:07:10;8.90;;;5.53;;
44026;SDS011;29696;55.698;37.460;2022-07-09T10:09:39;5.82;;;4.55;;
44026;SDS011;29696;55.698;37.460;2022-07-09T10:12:06;7.10;;;4.65;;
44026;SDS011;29696;55.698;37.460;2022-07-09T10:14:38;8.63;;;5.25;;
44026;SDS011;29696;55.698;37.460;2022-07-09T10:17:14;5.82;;;5.22;;
44026;SDS011;29696;55.698;37.460;2022-07-09T10:19:51;6.65;;;4.65;;
44026;SDS011;29696;55.698;37.460;2022-07-09T10:22:42;10.52;;;4.72;;
44026;SDS011;29696;55.698;37.460;2022-07-09T10:25:26;7.30;;;4.07;;
44026;SDS011;29696;55.698;37.460;2022-07-09T10:27:55;9.50;;;4.80;;
44026;SDS011;29696;55.698;37.460;2022-07-09T10:30:22;5.18;;;4.68;;
44026;SDS011;29696;55.698;37.460;2022-07-09T10:33:03;11.38;;;6.03;;
44026;SDS011;29696;55.698;37.460;2022-07-09T10:35:38;7.82;;;4.90;;
44026;SDS011;29696;55.698;37.460;2022-07-09T10:38:15;8.23;;;4.43;;
44026;SDS011;29696;55.698;37.460;2022-07-09T10:40:46;7.43;;;4.80;;
44026;SDS011;29696;55.698;37.460;2022-07-09T10:43:14;8.40;;;5.57;;
44026;SDS011;29696;55.698;37.460;2022-07-09T10:48:34;10.00;;;5.28;;
44026;SDS011;29696;55.698;37.460;2022-07-09T10:51:01;8.63;;;5.43;;
44026;SDS011;29696;55.698;37.460;2022-07-09T10:53:28;5.85;;;5.35;;
44026;SDS011;29696;55.698;37.460;2022-07-09T10:55:55;6.97;;;5.97;;
44026;SDS011;29696;55.698;37.460;2022-07-09T10:58:23;13.18;;;6.32;;
44026;SDS011;29696;55.698;37.460;2022-07-09T11:01:00;11.55;;;6.22;;
44026;SDS011;29696;55.698;37.460;2022-07-09T11:03:29;9.50;;;5.88;;
44026;SDS011;29696;55.698;37.460;2022-07-09T11:05:57;7.07;;;5.63;;
44026;SDS011;29696;55.698;37.460;2022-07-09T11:08:24;6.63;;;5.15;;
44026;SDS011;29696;55.698;37.460;2022-07-09T11:10:51;6.45;;;5.78;;
44026;SDS011;29696;55.698;37.460;2022-07-09T11:13:17;8.13;;;5.45;;
44026;SDS011;29696;55.698;37.460;2022-07-09T11:15:49;5.18;;;4.68;;
44026;SDS011;29696;55.698;37.460;2022-07-09T11:18:15;6.28;;;5.75;;
44026;SDS011;29696;55.698;37.460;2022-07-09T11:20:42;12.15;;;5.82;;
44026;SDS011;29696;55.698;37.460;2022-07-09T11:23:11;6.93;;;5.68;;
44026;SDS011;29696;55.698;37.460;2022-07-09T11:25:39;8.35;;;6.10;;
44026;SDS011;29696;55.698;37.460;2022-07-09T11:28:05;13.05;;;6.50;;
44026;SDS011;29696;55.698;37.460;2022-07-09T11:30:32;8.77;;;5.30;;
44026;SDS011;29696;55.698;37.460;2022-07-09T11:32:59;8.93;;;4.60;;
44026;SDS011;29696;55.698;37.460;2022-07-09T11:35:29;4.82;;;4.32;;
44026;SDS011;29696;55.698;37.460;2022-07-09T11:38:00;6.07;;;3.13;;
44026;SDS011;29696;55.698;37.460;2022-07-09T11:40:29;7.00;;;4.22;;
44026;SDS011;29696;55.698;37.460;2022-07-09T11:42:56;4.28;;;3.10;;
44026;SDS011;29696;55.698;37.460;2022-07-09T11:45:24;4.65;;;3.20;;
44026;SDS011;29696;55.698;37.460;2022-07-09T11:48:07;6.13;;;2.88;;
44026;SDS011;29696;55.698;37.460;2022-07-09T11:50:45;4.47;;;2.55;;
44026;SDS011;29696;55.698;37.460;2022-07-09T11:53:21;4.43;;;2.83;;
44026;SDS011;29696;55.698;37.460;2022-07-09T11:55:58;7.97;;;2.50;;
44026;SDS011;29696;55.698;37.460;2022-07-09T11:58:26;4.28;;;3.00;;
44026;SDS011;29696;55.698;37.460;2022-07-09T12:00:53;6.65;;;3.53;;
44026;SDS011;29696;55.698;37.460;2022-07-09T12:03:23;11.82;;;3.67;;
44026;SDS011;29696;55.698;37.460;2022-07-09T12:05:50;5.10;;;4.10;;
44026;SDS011;29696;55.698;37.460;2022-07-09T12:08:25;5.38;;;3.90;;
44026;SDS011;29696;55.698;37.460;2022-07-09T12:10:54;5.03;;;3.97;;
44026;SDS011;29696;55.698;37.460;2022-07-09T12:13:20;7.05;;;5.45;;
44026;SDS011;29696;55.698;37.460;2022-07-09T12:15:47;6.00;;;3.65;;
44026;SDS011;29696;55.698;37.460;2022-07-09T12:18:13;6.78;;;5.70;;
44026;SDS011;29696;55.698;37.460;2022-07-09T12:20:40;8.02;;;4.97;;
44026;SDS011;29696;55.698;37.460;2022-07-09T12:23:07;6.32;;;4.38;;
44026;SDS011;29696;55.698;37.460;2022-07-09T12:25:33;4.80;;;3.97;;
44026;SDS011;29696;55.698;37.460;2022-07-09T12:27:59;4.85;;;4.35;;
44026;SDS011;29696;55.698;37.460;2022-07-09T12:30:26;10.75;;;7.25;;
44026;SDS011;29696;55.698;37.460;2022-07-09T12:32:55;13.75;;;5.65;;
44026;SDS011;29696;55.698;37.460;2022-07-09T12:35:24;14.57;;;7.85;;
44026;SDS011;29696;55.698;37.460;2022-07-09T12:37:52;12.80;;;9.45;;
44026;SDS011;29696;55.698;37.460;2022-07-09T12:40:19;7.70;;;6.30;;
44026;SDS011;29696;55.698;37.460;2022-07-09T12:42:45;8.15;;;7.07;;
44026;SDS011;29696;55.698;37.460;2022-07-09T12:45:11;9.65;;;5.70;;
44026;SDS011;29696;55.698;37.460;2022-07-09T12:47:38;7.68;;;6.07;;
44026;SDS011;29696;55.698;37.460;2022-07-09T12:50:05;6.53;;;5.93;;
44026;SDS011;29696;55.698;37.460;2022-07-09T12:52:32;11.20;;;8.07;;
44026;SDS011;29696;55.698;37.460;2022-07-09T12:55:00;7.57;;;6.05;;
44026;SDS011;29696;55.698;37.460;2022-07-09T12:57:29;10.40;;;6.53;;
44026;SDS011;29696;55.698;37.460;2022-07-09T12:59:56;8.07;;;6.25;;
44026;SDS011;29696;55.698;37.460;2022-07-09T13:02:23;8.20;;;6.35;;
44026;SDS011;29696;55.698;37.460;2022-07-09T13:04:49;8.55;;;6.80;;
44026;SDS011;29696;55.698;37.460;2022-07-09T13:07:16;8.38;;;6.47;;
44026;SDS011;29696;55.698;37.460;2022-07-09T13:09:42;9.55;;;6.85;;
44026;SDS011;29696;55.698;37.460;2022-07-09T13:12:09;15.23;;;6.38;;
44026;SDS011;29696;55.698;37.460;2022-07-09T13:14:36;6.32;;;5.35;;
44026;SDS011;29696;55.698;37.460;2022-07-09T13:17:02;9.77;;;6.47;;
44026;SDS011;29696;55.698;37.460;2022-07-09T13:19:29;8.18;;;5.43;;
44026;SDS011;29696;55.698;37.460;2022-07-09T13:21:55;7.78;;;5.13;;
44026;SDS011;29696;55.698;37.460;2022-07-09T13:24:21;8.75;;;5.38;;
44026;SDS011;29696;55.698;37.460;2022-07-09T13:26:48;19.88;;;6.25;;
44026;SDS011;29696;55.698;37.460;2022-07-09T13:29:14;7.82;;;5.38;;
44026;SDS011;29696;55.698;37.460;2022-07-09T13:31:41;8.48;;;6.25;;
44026;SDS011;29696;55.698;37.460;2022-07-09T13:34:07;6.80;;;4.93;;
44026;SDS011;29696;55.698;37.460;2022-07-09T13:36:33;7.20;;;5.10;;
44026;SDS011;29696;55.698;37.460;2022-07-09T13:39:00;8.13;;;4.95;;
44026;SDS011;29696;55.698;37.460;2022-07-09T13:41:26;8.70;;;5.53;;
44026;SDS011;29696;55.698;37.460;2022-07-09T13:43:53;8.40;;;4.80;;
44026;SDS011;29696;55.698;37.460;2022-07-09T13:46:20;6.88;;;5.60;;
44026;SDS011;29696;55.698;37.460;2022-07-09T13:48:46;4.85;;;4.35;;
44026;SDS011;29696;55.698;37.460;2022-07-09T13:51:12;6.70;;;4.50;;
44026;SDS011;29696;55.698;37.460;2022-07-09T13:53:39;10.00;;;5.78;;
44026;SDS011;29696;55.698;37.460;2022-07-09T13:56:06;7.90;;;5.15;;
44026;SDS011;29696;55.698;37.460;2022-07-09T13:58:33;6.03;;;4.53;;
44026;SDS011;29696;55.698;37.460;2022-07-09T14:01:00;15.63;;;5.45;;
44026;SDS011;29696;55.698;37.460;2022-07-09T14:03:27;5.35;;;4.72;;
44026;SDS011;29696;55.698;37.460;2022-07-09T14:05:53;7.97;;;4.50;;
44026;SDS011;29696;55.698;37.460;2022-07-09T14:08:20;5.72;;;4.57;;
44026;SDS011;29696;55.698;37.460;2022-07-09T14:10:50;7.15;;;5.32;;
44026;SDS011;29696;55.698;37.460;2022-07-09T14:13:24;5.30;;;4.37;;
44026;SDS011;29696;55.698;37.460;2022-07-09T14:15:55;5.50;;;4.65;;
44026;SDS011;29696;55.698;37.460;2022-07-09T14:18:22;11.85;;;5.22;;
44026;SDS011;29696;55.698;37.460;2022-07-09T14:20:48;6.93;;;5.30;;
44026;SDS011;29696;55.698;37.460;2022-07-09T14:23:15;14.50;;;5.93;;
44026;SDS011;29696;55.698;37.460;2022-07-09T14:25:42;7.35;;;5.60;;
44026;SDS011;29696;55.698;37.460;2022-07-09T14:28:09;8.45;;;4.55;;
44026;SDS011;29696;55.698;37.460;2022-07-09T14:30:35;9.95;;;4.95;;
44026;SDS011;29696;55.698;37.460;2022-07-09T14:33:01;10.38;;;5.30;;
44026;SDS011;29696;55.698;37.460;2022-07-09T14:35:28;6.05;;;3.88;;
44026;SDS011;29696;55.698;37.460;2022-07-09T14:37:55;8.30;;;5.03;;
44026;SDS011;29696;55.698;37.460;2022-07-09T14:40:21;5.82;;;3.75;;
44026;SDS011;29696;55.698;37.460;2022-07-09T14:42:47;4.22;;;3.75;;
44026;SDS011;29696;55.698;37.460;2022-07-09T14:45:14;4.10;;;3.67;;
44026;SDS011;29696;55.698;37.460;2022-07-09T14:47:40;6.75;;;4.45;;